Terminal Aerodrome Forecast
Issued by NWS

Home | Current Version | Previous Version | Text Only | Print | Product List | Glossary On
Versions: 1 2 3 4 5 6 7 8 9 10 11 12 13 14 15 16
256
FTUS42 KGSP 242328
TAFGMU
TAF
KGMU 242328Z 2500/2524 22006KT P6SM FEW070 SCT250
     FM250200 22003KT P6SM FEW250
     FM251600 20007KT P6SM SCT060=

USA.gov is the U.S. government's official web portal to all federal, state and local government web resources and services.